sensor_id;sensor_type;location;lat;lon;timestamp;P1;durP1;ratioP1;P2;durP2;ratioP2
3603;SDS011;1816;50.976;6.936;2023-09-30T00:01:11;22.92;;;4.53;;
3603;SDS011;1816;50.976;6.936;2023-09-30T00:03:37;19.95;;;3.88;;
3603;SDS011;1816;50.976;6.936;2023-09-30T00:06:04;23.42;;;4.30;;
3603;SDS011;1816;50.976;6.936;2023-09-30T00:08:32;24.98;;;4.43;;
3603;SDS011;1816;50.976;6.936;2023-09-30T00:10:58;23.42;;;4.60;;
3603;SDS011;1816;50.976;6.936;2023-09-30T00:13:26;19.40;;;3.35;;
3603;SDS011;1816;50.976;6.936;2023-09-30T00:15:52;19.20;;;4.43;;
3603;SDS011;1816;50.976;6.936;2023-09-30T00:18:19;22.83;;;3.95;;
3603;SDS011;1816;50.976;6.936;2023-09-30T00:20:46;20.55;;;4.43;;
3603;SDS011;1816;50.976;6.936;2023-09-30T00:23:12;21.10;;;4.70;;
3603;SDS011;1816;50.976;6.936;2023-09-30T00:25:40;21.10;;;4.90;;
3603;SDS011;1816;50.976;6.936;2023-09-30T00:28:08;23.98;;;4.60;;
3603;SDS011;1816;50.976;6.936;2023-09-30T00:30:34;19.63;;;4.00;;
3603;SDS011;1816;50.976;6.936;2023-09-30T00:33:02;26.27;;;6.35;;
3603;SDS011;1816;50.976;6.936;2023-09-30T00:35:31;23.02;;;4.65;;
3603;SDS011;1816;50.976;6.936;2023-09-30T00:37:58;24.40;;;4.68;;
3603;SDS011;1816;50.976;6.936;2023-09-30T00:40:24;28.33;;;5.22;;
3603;SDS011;1816;50.976;6.936;2023-09-30T00:42:52;19.65;;;4.50;;
3603;SDS011;1816;50.976;6.936;2023-09-30T00:45:19;25.45;;;5.65;;
3603;SDS011;1816;50.976;6.936;2023-09-30T00:47:46;21.67;;;5.43;;
3603;SDS011;1816;50.976;6.936;2023-09-30T00:50:14;24.80;;;5.97;;
3603;SDS011;1816;50.976;6.936;2023-09-30T00:52:41;22.75;;;5.13;;
3603;SDS011;1816;50.976;6.936;2023-09-30T00:55:09;23.75;;;5.13;;
3603;SDS011;1816;50.976;6.936;2023-09-30T00:57:37;24.15;;;5.45;;
3603;SDS011;1816;50.976;6.936;2023-09-30T01:00:06;23.77;;;4.97;;
3603;SDS011;1816;50.976;6.936;2023-09-30T01:02:33;23.50;;;5.25;;
3603;SDS011;1816;50.976;6.936;2023-09-30T01:05:01;23.65;;;5.47;;
3603;SDS011;1816;50.976;6.936;2023-09-30T01:07:28;27.27;;;5.07;;
3603;SDS011;1816;50.976;6.936;2023-09-30T01:09:54;21.30;;;4.60;;
3603;SDS011;1816;50.976;6.936;2023-09-30T01:12:21;20.70;;;4.47;;
3603;SDS011;1816;50.976;6.936;2023-09-30T01:14:47;23.90;;;5.45;;
3603;SDS011;1816;50.976;6.936;2023-09-30T01:17:15;23.50;;;5.25;;
3603;SDS011;1816;50.976;6.936;2023-09-30T01:19:43;26.10;;;4.40;;
3603;SDS011;1816;50.976;6.936;2023-09-30T01:22:11;22.00;;;4.70;;
3603;SDS011;1816;50.976;6.936;2023-09-30T01:24:38;23.45;;;4.45;;
3603;SDS011;1816;50.976;6.936;2023-09-30T01:27:06;23.35;;;4.88;;
3603;SDS011;1816;50.976;6.936;2023-09-30T01:29:33;19.90;;;4.20;;
3603;SDS011;1816;50.976;6.936;2023-09-30T01:31:59;25.70;;;4.70;;
3603;SDS011;1816;50.976;6.936;2023-09-30T01:34:27;22.27;;;5.60;;
3603;SDS011;1816;50.976;6.936;2023-09-30T01:36:53;20.40;;;5.38;;
3603;SDS011;1816;50.976;6.936;2023-09-30T01:39:21;22.83;;;4.68;;
3603;SDS011;1816;50.976;6.936;2023-09-30T01:41:48;21.67;;;5.00;;
3603;SDS011;1816;50.976;6.936;2023-09-30T01:44:15;18.67;;;3.80;;
3603;SDS011;1816;50.976;6.936;2023-09-30T01:46:41;19.80;;;4.10;;
3603;SDS011;1816;50.976;6.936;2023-09-30T01:49:08;21.23;;;4.40;;
3603;SDS011;1816;50.976;6.936;2023-09-30T01:51:35;22.70;;;4.28;;
3603;SDS011;1816;50.976;6.936;2023-09-30T01:54:01;21.52;;;4.38;;
3603;SDS011;1816;50.976;6.936;2023-09-30T01:56:29;21.38;;;4.28;;
3603;SDS011;1816;50.976;6.936;2023-09-30T01:58:56;22.52;;;5.30;;
3603;SDS011;1816;50.976;6.936;2023-09-30T02:01:23;25.20;;;4.55;;
3603;SDS011;1816;50.976;6.936;2023-09-30T02:03:50;22.70;;;4.40;;
3603;SDS011;1816;50.976;6.936;2023-09-30T02:06:17;25.77;;;4.50;;
3603;SDS011;1816;50.976;6.936;2023-09-30T02:08:44;21.95;;;4.68;;
3603;SDS011;1816;50.976;6.936;2023-09-30T02:11:11;22.92;;;4.75;;
3603;SDS011;1816;50.976;6.936;2023-09-30T02:13:41;22.92;;;5.00;;
3603;SDS011;1816;50.976;6.936;2023-09-30T02:16:11;24.57;;;4.50;;
3603;SDS011;1816;50.976;6.936;2023-09-30T02:18:38;23.45;;;4.80;;
3603;SDS011;1816;50.976;6.936;2023-09-30T02:21:05;24.63;;;5.20;;
3603;SDS011;1816;50.976;6.936;2023-09-30T02:23:31;24.27;;;4.55;;
3603;SDS011;1816;50.976;6.936;2023-09-30T02:25:58;19.85;;;4.72;;
3603;SDS011;1816;50.976;6.936;2023-09-30T02:28:24;19.92;;;4.05;;
3603;SDS011;1816;50.976;6.936;2023-09-30T02:30:53;19.33;;;4.18;;
3603;SDS011;1816;50.976;6.936;2023-09-30T02:33:19;24.88;;;5.18;;
3603;SDS011;1816;50.976;6.936;2023-09-30T02:35:46;25.13;;;4.70;;
3603;SDS011;1816;50.976;6.936;2023-09-30T02:38:13;23.10;;;4.27;;
3603;SDS011;1816;50.976;6.936;2023-09-30T02:40:44;21.02;;;3.83;;
3603;SDS011;1816;50.976;6.936;2023-09-30T02:43:12;20.67;;;4.10;;
3603;SDS011;1816;50.976;6.936;2023-09-30T02:45:39;22.80;;;5.03;;
3603;SDS011;1816;50.976;6.936;2023-09-30T02:48:08;23.88;;;4.57;;
3603;SDS011;1816;50.976;6.936;2023-09-30T02:50:35;21.08;;;4.38;;
3603;SDS011;1816;50.976;6.936;2023-09-30T02:53:01;24.90;;;4.90;;
3603;SDS011;1816;50.976;6.936;2023-09-30T02:55:28;23.35;;;4.80;;
3603;SDS011;1816;50.976;6.936;2023-09-30T02:57:54;21.98;;;5.00;;
3603;SDS011;1816;50.976;6.936;2023-09-30T03:00:22;28.20;;;5.00;;
3603;SDS011;1816;50.976;6.936;2023-09-30T03:02:53;24.05;;;5.30;;
3603;SDS011;1816;50.976;6.936;2023-09-30T03:05:22;27.05;;;5.47;;
3603;SDS011;1816;50.976;6.936;2023-09-30T03:07:50;28.25;;;6.57;;
3603;SDS011;1816;50.976;6.936;2023-09-30T03:10:17;25.67;;;6.03;;
3603;SDS011;1816;50.976;6.936;2023-09-30T03:12:47;27.17;;;6.97;;
3603;SDS011;1816;50.976;6.936;2023-09-30T03:15:14;24.50;;;5.72;;
3603;SDS011;1816;50.976;6.936;2023-09-30T03:17:41;29.38;;;6.10;;
3603;SDS011;1816;50.976;6.936;2023-09-30T03:20:08;20.97;;;4.70;;
3603;SDS011;1816;50.976;6.936;2023-09-30T03:22:39;24.10;;;4.80;;
3603;SDS011;1816;50.976;6.936;2023-09-30T03:25:07;23.00;;;4.50;;
3603;SDS011;1816;50.976;6.936;2023-09-30T03:27:34;21.77;;;4.70;;
3603;SDS011;1816;50.976;6.936;2023-09-30T03:30:01;20.80;;;4.68;;
3603;SDS011;1816;50.976;6.936;2023-09-30T03:32:27;19.45;;;4.18;;
3603;SDS011;1816;50.976;6.936;2023-09-30T03:34:55;22.27;;;4.57;;
3603;SDS011;1816;50.976;6.936;2023-09-30T03:37:25;21.65;;;4.13;;
3603;SDS011;1816;50.976;6.936;2023-09-30T03:39:54;20.83;;;4.97;;
3603;SDS011;1816;50.976;6.936;2023-09-30T03:42:21;22.73;;;5.05;;
3603;SDS011;1816;50.976;6.936;2023-09-30T03:44:48;22.20;;;4.28;;
3603;SDS011;1816;50.976;6.936;2023-09-30T03:47:18;21.23;;;4.10;;
3603;SDS011;1816;50.976;6.936;2023-09-30T03:49:45;20.20;;;4.80;;
3603;SDS011;1816;50.976;6.936;2023-09-30T03:52:11;28.25;;;6.00;;
3603;SDS011;1816;50.976;6.936;2023-09-30T03:54:41;21.45;;;4.75;;
3603;SDS011;1816;50.976;6.936;2023-09-30T03:57:10;24.13;;;4.30;;
3603;SDS011;1816;50.976;6.936;2023-09-30T03:59:39;20.13;;;5.03;;
3603;SDS011;1816;50.976;6.936;2023-09-30T04:02:05;25.55;;;5.50;;
3603;SDS011;1816;50.976;6.936;2023-09-30T04:04:32;29.30;;;6.10;;
3603;SDS011;1816;50.976;6.936;2023-09-30T04:07:01;28.02;;;7.00;;
3603;SDS011;1816;50.976;6.936;2023-09-30T04:09:27;24.60;;;5.45;;
3603;SDS011;1816;50.976;6.936;2023-09-30T04:11:54;19.55;;;4.80;;
3603;SDS011;1816;50.976;6.936;2023-09-30T04:14:21;22.23;;;4.80;;
3603;SDS011;1816;50.976;6.936;2023-09-30T04:16:48;23.23;;;5.55;;
3603;SDS011;1816;50.976;6.936;2023-09-30T04:19:15;22.50;;;4.90;;
3603;SDS011;1816;50.976;6.936;2023-09-30T04:21:41;23.25;;;5.20;;
3603;SDS011;1816;50.976;6.936;2023-09-30T04:24:08;21.65;;;5.05;;
3603;SDS011;1816;50.976;6.936;2023-09-30T04:26:35;21.00;;;4.43;;
3603;SDS011;1816;50.976;6.936;2023-09-30T04:29:02;22.20;;;4.28;;
3603;SDS011;1816;50.976;6.936;2023-09-30T04:31:38;23.20;;;4.95;;
3603;SDS011;1816;50.976;6.936;2023-09-30T04:34:05;23.55;;;4.78;;
3603;SDS011;1816;50.976;6.936;2023-09-30T04:36:32;21.02;;;4.50;;
3603;SDS011;1816;50.976;6.936;2023-09-30T04:39:01;22.83;;;4.18;;
3603;SDS011;1816;50.976;6.936;2023-09-30T04:41:29;23.92;;;5.53;;
3603;SDS011;1816;50.976;6.936;2023-09-30T04:43:55;19.95;;;4.70;;
3603;SDS011;1816;50.976;6.936;2023-09-30T04:46:22;19.90;;;4.93;;
3603;SDS011;1816;50.976;6.936;2023-09-30T04:48:51;21.83;;;5.20;;
3603;SDS011;1816;50.976;6.936;2023-09-30T04:51:18;20.63;;;4.95;;
3603;SDS011;1816;50.976;6.936;2023-09-30T04:53:45;22.23;;;4.68;;
3603;SDS011;1816;50.976;6.936;2023-09-30T04:56:12;19.08;;;4.93;;
3603;SDS011;1816;50.976;6.936;2023-09-30T04:58:39;21.58;;;4.85;;
3603;SDS011;1816;50.976;6.936;2023-09-30T05:01:06;22.70;;;5.20;;
3603;SDS011;1816;50.976;6.936;2023-09-30T05:03:35;20.02;;;4.18;;
3603;SDS011;1816;50.976;6.936;2023-09-30T05:06:04;20.63;;;4.75;;
3603;SDS011;1816;50.976;6.936;2023-09-30T05:08:30;26.55;;;5.05;;
3603;SDS011;1816;50.976;6.936;2023-09-30T05:10:57;22.55;;;5.70;;
3603;SDS011;1816;50.976;6.936;2023-09-30T05:13:23;22.80;;;4.80;;
3603;SDS011;1816;50.976;6.936;2023-09-30T05:15:51;21.13;;;4.45;;
3603;SDS011;1816;50.976;6.936;2023-09-30T05:18:18;24.15;;;4.55;;
3603;SDS011;1816;50.976;6.936;2023-09-30T05:20:45;20.50;;;4.47;;
3603;SDS011;1816;50.976;6.936;2023-09-30T05:23:13;19.75;;;4.50;;
3603;SDS011;1816;50.976;6.936;2023-09-30T05:25:41;23.50;;;5.10;;
3603;SDS011;1816;50.976;6.936;2023-09-30T05:28:08;23.30;;;5.43;;
3603;SDS011;1816;50.976;6.936;2023-09-30T05:30:35;20.60;;;4.38;;
3603;SDS011;1816;50.976;6.936;2023-09-30T05:33:03;21.98;;;4.30;;
3603;SDS011;1816;50.976;6.936;2023-09-30T05:35:29;23.77;;;4.93;;
3603;SDS011;1816;50.976;6.936;2023-09-30T05:37:58;20.38;;;4.63;;
3603;SDS011;1816;50.976;6.936;2023-09-30T05:40:29;22.10;;;5.03;;
3603;SDS011;1816;50.976;6.936;2023-09-30T05:43:05;22.75;;;4.55;;
3603;SDS011;1816;50.976;6.936;2023-09-30T05:45:32;22.92;;;5.03;;
3603;SDS011;1816;50.976;6.936;2023-09-30T05:48:02;27.13;;;6.63;;
3603;SDS011;1816;50.976;6.936;2023-09-30T05:50:32;22.97;;;4.67;;
3603;SDS011;1816;50.976;6.936;2023-09-30T05:53:00;26.63;;;5.40;;
3603;SDS011;1816;50.976;6.936;2023-09-30T05:55:28;24.48;;;5.70;;
3603;SDS011;1816;50.976;6.936;2023-09-30T05:57:55;26.52;;;7.03;;
3603;SDS011;1816;50.976;6.936;2023-09-30T06:00:22;24.67;;;6.25;;
3603;SDS011;1816;50.976;6.936;2023-09-30T06:02:50;27.35;;;7.88;;
3603;SDS011;1816;50.976;6.936;2023-09-30T06:05:18;30.63;;;7.00;;
3603;SDS011;1816;50.976;6.936;2023-09-30T06:07:49;26.73;;;6.60;;
3603;SDS011;1816;50.976;6.936;2023-09-30T06:10:15;26.17;;;6.67;;
3603;SDS011;1816;50.976;6.936;2023-09-30T06:12:44;29.67;;;7.18;;
3603;SDS011;1816;50.976;6.936;2023-09-30T06:15:10;24.25;;;7.25;;
3603;SDS011;1816;50.976;6.936;2023-09-30T06:17:37;26.25;;;6.57;;
3603;SDS011;1816;50.976;6.936;2023-09-30T06:20:04;33.50;;;7.40;;
3603;SDS011;1816;50.976;6.936;2023-09-30T06:22:34;28.98;;;7.00;;
3603;SDS011;1816;50.976;6.936;2023-09-30T06:25:01;24.33;;;6.28;;
3603;SDS011;1816;50.976;6.936;2023-09-30T06:27:31;25.80;;;6.95;;
3603;SDS011;1816;50.976;6.936;2023-09-30T06:29:59;28.95;;;7.53;;
3603;SDS011;1816;50.976;6.936;2023-09-30T06:32:26;27.73;;;6.88;;
3603;SDS011;1816;50.976;6.936;2023-09-30T06:34:52;30.42;;;7.55;;
3603;SDS011;1816;50.976;6.936;2023-09-30T06:37:19;33.45;;;8.38;;
3603;SDS011;1816;50.976;6.936;2023-09-30T06:39:46;29.63;;;7.50;;
3603;SDS011;1816;50.976;6.936;2023-09-30T06:42:14;28.50;;;7.50;;
3603;SDS011;1816;50.976;6.936;2023-09-30T06:44:41;29.50;;;7.78;;
3603;SDS011;1816;50.976;6.936;2023-09-30T06:47:08;27.85;;;7.97;;
3603;SDS011;1816;50.976;6.936;2023-09-30T06:49:38;29.60;;;7.72;;
3603;SDS011;1816;50.976;6.936;2023-09-30T06:52:05;27.17;;;7.28;;
3603;SDS011;1816;50.976;6.936;2023-09-30T06:54:32;30.98;;;8.00;;
3603;SDS011;1816;50.976;6.936;2023-09-30T06:56:58;26.00;;;6.90;;
3603;SDS011;1816;50.976;6.936;2023-09-30T06:59:25;28.00;;;8.50;;
3603;SDS011;1816;50.976;6.936;2023-09-30T07:01:52;31.40;;;8.60;;
3603;SDS011;1816;50.976;6.936;2023-09-30T07:04:20;34.92;;;9.70;;
3603;SDS011;1816;50.976;6.936;2023-09-30T07:06:48;33.55;;;9.85;;
3603;SDS011;1816;50.976;6.936;2023-09-30T07:09:14;31.90;;;10.10;;
3603;SDS011;1816;50.976;6.936;2023-09-30T07:11:43;30.08;;;9.98;;
3603;SDS011;1816;50.976;6.936;2023-09-30T07:14:10;31.15;;;10.57;;
3603;SDS011;1816;50.976;6.936;2023-09-30T07:16:37;33.90;;;11.18;;
3603;SDS011;1816;50.976;6.936;2023-09-30T07:19:03;28.57;;;9.23;;
3603;SDS011;1816;50.976;6.936;2023-09-30T07:21:31;34.55;;;11.40;;
3603;SDS011;1816;50.976;6.936;2023-09-30T07:23:58;33.65;;;11.30;;
3603;SDS011;1816;50.976;6.936;2023-09-30T07:26:25;37.00;;;11.07;;
3603;SDS011;1816;50.976;6.936;2023-09-30T07:28:51;37.63;;;12.43;;
3603;SDS011;1816;50.976;6.936;2023-09-30T07:31:20;34.88;;;11.82;;
3603;SDS011;1816;50.976;6.936;2023-09-30T07:33:49;35.08;;;11.85;;
3603;SDS011;1816;50.976;6.936;2023-09-30T07:36:15;43.75;;;12.25;;
3603;SDS011;1816;50.976;6.936;2023-09-30T07:38:44;38.80;;;12.73;;
3603;SDS011;1816;50.976;6.936;2023-09-30T07:41:10;33.38;;;12.32;;
3603;SDS011;1816;50.976;6.936;2023-09-30T07:43:37;38.20;;;12.70;;
3603;SDS011;1816;50.976;6.936;2023-09-30T07:46:05;39.33;;;13.27;;
3603;SDS011;1816;50.976;6.936;2023-09-30T07:48:32;35.40;;;12.88;;
3603;SDS011;1816;50.976;6.936;2023-09-30T07:50:59;38.80;;;12.95;;
3603;SDS011;1816;50.976;6.936;2023-09-30T07:53:25;35.45;;;13.40;;
3603;SDS011;1816;50.976;6.936;2023-09-30T07:55:53;33.90;;;12.10;;
3603;SDS011;1816;50.976;6.936;2023-09-30T07:58:20;32.92;;;12.45;;
3603;SDS011;1816;50.976;6.936;2023-09-30T08:00:47;38.90;;;11.55;;
3603;SDS011;1816;50.976;6.936;2023-09-30T08:03:14;38.58;;;12.82;;
3603;SDS011;1816;50.976;6.936;2023-09-30T08:05:41;31.90;;;11.60;;
3603;SDS011;1816;50.976;6.936;2023-09-30T08:08:08;30.23;;;10.25;;
3603;SDS011;1816;50.976;6.936;2023-09-30T08:10:35;28.23;;;10.40;;
3603;SDS011;1816;50.976;6.936;2023-09-30T08:13:04;26.33;;;9.15;;
3603;SDS011;1816;50.976;6.936;2023-09-30T08:15:31;28.90;;;10.83;;
3603;SDS011;1816;50.976;6.936;2023-09-30T08:17:58;25.30;;;9.20;;
3603;SDS011;1816;50.976;6.936;2023-09-30T08:20:25;25.48;;;8.00;;
3603;SDS011;1816;50.976;6.936;2023-09-30T08:22:51;27.05;;;7.88;;
3603;SDS011;1816;50.976;6.936;2023-09-30T08:25:18;28.27;;;8.00;;
3603;SDS011;1816;50.976;6.936;2023-09-30T08:27:44;26.23;;;8.50;;
3603;SDS011;1816;50.976;6.936;2023-09-30T08:30:17;26.58;;;8.80;;
3603;SDS011;1816;50.976;6.936;2023-09-30T08:32:44;27.88;;;8.30;;
3603;SDS011;1816;50.976;6.936;2023-09-30T08:35:10;25.02;;;8.38;;
3603;SDS011;1816;50.976;6.936;2023-09-30T08:37:37;25.33;;;8.38;;
3603;SDS011;1816;50.976;6.936;2023-09-30T08:40:04;28.10;;;9.20;;
3603;SDS011;1816;50.976;6.936;2023-09-30T08:42:32;28.92;;;8.45;;
3603;SDS011;1816;50.976;6.936;2023-09-30T08:45:01;26.02;;;9.13;;
3603;SDS011;1816;50.976;6.936;2023-09-30T08:47:29;25.35;;;8.82;;
3603;SDS011;1816;50.976;6.936;2023-09-30T08:49:56;23.63;;;8.50;;
3603;SDS011;1816;50.976;6.936;2023-09-30T08:52:23;29.77;;;8.45;;
3603;SDS011;1816;50.976;6.936;2023-09-30T08:54:51;26.67;;;8.00;;
3603;SDS011;1816;50.976;6.936;2023-09-30T08:57:18;22.80;;;7.00;;
3603;SDS011;1816;50.976;6.936;2023-09-30T08:59:45;22.92;;;7.78;;
3603;SDS011;1816;50.976;6.936;2023-09-30T09:02:12;23.27;;;7.60;;
3603;SDS011;1816;50.976;6.936;2023-09-30T09:04:40;24.10;;;7.60;;
3603;SDS011;1816;50.976;6.936;2023-09-30T09:07:07;25.45;;;7.70;;
3603;SDS011;1816;50.976;6.936;2023-09-30T09:09:34;24.48;;;7.90;;
3603;SDS011;1816;50.976;6.936;2023-09-30T09:12:01;23.17;;;7.70;;
3603;SDS011;1816;50.976;6.936;2023-09-30T09:14:39;24.50;;;8.07;;
3603;SDS011;1816;50.976;6.936;2023-09-30T09:17:06;23.70;;;7.88;;
3603;SDS011;1816;50.976;6.936;2023-09-30T09:19:33;24.13;;;7.77;;
3603;SDS011;1816;50.976;6.936;2023-09-30T09:22:02;22.92;;;7.35;;
3603;SDS011;1816;50.976;6.936;2023-09-30T09:24:31;23.42;;;7.50;;
3603;SDS011;1816;50.976;6.936;2023-09-30T09:27:05;22.70;;;7.05;;
3603;SDS011;1816;50.976;6.936;2023-09-30T09:29:32;25.65;;;7.72;;
3603;SDS011;1816;50.976;6.936;2023-09-30T09:32:09;22.35;;;7.10;;
3603;SDS011;1816;50.976;6.936;2023-09-30T09:34:36;22.00;;;7.10;;
3603;SDS011;1816;50.976;6.936;2023-09-30T09:37:13;23.50;;;8.38;;
3603;SDS011;1816;50.976;6.936;2023-09-30T09:39:48;22.38;;;7.00;;
3603;SDS011;1816;50.976;6.936;2023-09-30T09:42:22;26.17;;;7.20;;
3603;SDS011;1816;50.976;6.936;2023-09-30T09:44:49;22.55;;;7.38;;
3603;SDS011;1816;50.976;6.936;2023-09-30T09:47:17;24.15;;;6.95;;
3603;SDS011;1816;50.976;6.936;2023-09-30T09:49:44;23.48;;;7.47;;
3603;SDS011;1816;50.976;6.936;2023-09-30T09:52:11;20.80;;;6.13;;
3603;SDS011;1816;50.976;6.936;2023-09-30T09:54:39;25.42;;;6.60;;
3603;SDS011;1816;50.976;6.936;2023-09-30T09:57:06;23.45;;;6.75;;
3603;SDS011;1816;50.976;6.936;2023-09-30T09:59:36;21.90;;;6.45;;
3603;SDS011;1816;50.976;6.936;2023-09-30T10:02:03;25.75;;;7.95;;
3603;SDS011;1816;50.976;6.936;2023-09-30T10:04:33;22.92;;;6.50;;
3603;SDS011;1816;50.976;6.936;2023-09-30T10:06:59;25.20;;;7.63;;
3603;SDS011;1816;50.976;6.936;2023-09-30T10:09:27;23.85;;;6.70;;
3603;SDS011;1816;50.976;6.936;2023-09-30T10:11:58;23.52;;;7.55;;
3603;SDS011;1816;50.976;6.936;2023-09-30T10:14:29;22.07;;;6.20;;
3603;SDS011;1816;50.976;6.936;2023-09-30T10:16:56;22.60;;;6.93;;
3603;SDS011;1816;50.976;6.936;2023-09-30T10:19:23;23.67;;;6.88;;
3603;SDS011;1816;50.976;6.936;2023-09-30T10:24:35;22.13;;;6.57;;
3603;SDS011;1816;50.976;6.936;2023-09-30T10:29:49;21.90;;;5.88;;
3603;SDS011;1816;50.976;6.936;2023-09-30T10:32:20;22.70;;;5.80;;
3603;SDS011;1816;50.976;6.936;2023-09-30T10:34:47;20.27;;;6.00;;
3603;SDS011;1816;50.976;6.936;2023-09-30T10:37:20;21.60;;;6.00;;
3603;SDS011;1816;50.976;6.936;2023-09-30T10:39:53;20.08;;;5.93;;
3603;SDS011;1816;50.976;6.936;2023-09-30T10:42:44;19.85;;;4.80;;
3603;SDS011;1816;50.976;6.936;2023-09-30T10:50:52;20.40;;;4.97;;
3603;SDS011;1816;50.976;6.936;2023-09-30T10:53:21;20.45;;;5.00;;
3603;SDS011;1816;50.976;6.936;2023-09-30T10:55:52;18.50;;;4.82;;
3603;SDS011;1816;50.976;6.936;2023-09-30T10:58:20;18.83;;;4.80;;
3603;SDS011;1816;50.976;6.936;2023-09-30T11:00:54;21.77;;;5.30;;
3603;SDS011;1816;50.976;6.936;2023-09-30T11:03:21;21.13;;;5.80;;
3603;SDS011;1816;50.976;6.936;2023-09-30T11:05:48;22.92;;;5.72;;
3603;SDS011;1816;50.976;6.936;2023-09-30T11:08:36;20.73;;;5.00;;
3603;SDS011;1816;50.976;6.936;2023-09-30T11:11:03;21.30;;;4.80;;
3603;SDS011;1816;50.976;6.936;2023-09-30T11:13:33;18.42;;;4.30;;
3603;SDS011;1816;50.976;6.936;2023-09-30T11:16:01;21.67;;;4.40;;
3603;SDS011;1816;50.976;6.936;2023-09-30T11:18:29;19.85;;;3.90;;
3603;SDS011;1816;50.976;6.936;2023-09-30T11:21:02;18.48;;;3.80;;
3603;SDS011;1816;50.976;6.936;2023-09-30T11:23:30;18.35;;;3.35;;
3603;SDS011;1816;50.976;6.936;2023-09-30T11:25:58;19.23;;;3.50;;
3603;SDS011;1816;50.976;6.936;2023-09-30T11:28:25;17.63;;;3.20;;
3603;SDS011;1816;50.976;6.936;2023-09-30T11:31:02;20.08;;;3.95;;
3603;SDS011;1816;50.976;6.936;2023-09-30T11:33:28;19.57;;;3.73;;
3603;SDS011;1816;50.976;6.936;2023-09-30T11:35:57;17.80;;;2.90;;
3603;SDS011;1816;50.976;6.936;2023-09-30T11:38:25;19.35;;;3.67;;
3603;SDS011;1816;50.976;6.936;2023-09-30T11:41:00;18.52;;;3.10;;
3603;SDS011;1816;50.976;6.936;2023-09-30T11:43:29;16.52;;;2.70;;
3603;SDS011;1816;50.976;6.936;2023-09-30T11:46:05;17.30;;;2.60;;
3603;SDS011;1816;50.976;6.936;2023-09-30T11:48:32;17.55;;;2.70;;
3603;SDS011;1816;50.976;6.936;2023-09-30T11:50:59;17.05;;;2.58;;
3603;SDS011;1816;50.976;6.936;2023-09-30T11:53:29;16.73;;;2.35;;
3603;SDS011;1816;50.976;6.936;2023-09-30T11:56:01;16.80;;;3.00;;
3603;SDS011;1816;50.976;6.936;2023-09-30T11:58:29;16.58;;;2.67;;
3603;SDS011;1816;50.976;6.936;2023-09-30T12:00:58;17.40;;;2.60;;
3603;SDS011;1816;50.976;6.936;2023-09-30T12:03:28;18.13;;;3.17;;
3603;SDS011;1816;50.976;6.936;2023-09-30T12:05:55;16.33;;;2.30;;
3603;SDS011;1816;50.976;6.936;2023-09-30T12:08:21;19.00;;;2.70;;
3603;SDS011;1816;50.976;6.936;2023-09-30T12:10:48;21.90;;;3.00;;
3603;SDS011;1816;50.976;6.936;2023-09-30T12:13:17;17.20;;;2.22;;
3603;SDS011;1816;50.976;6.936;2023-09-30T12:15:44;19.20;;;2.40;;
3603;SDS011;1816;50.976;6.936;2023-09-30T12:18:11;17.45;;;2.00;;
3603;SDS011;1816;50.976;6.936;2023-09-30T12:20:40;18.10;;;2.55;;
3603;SDS011;1816;50.976;6.936;2023-09-30T12:23:07;18.42;;;2.47;;
3603;SDS011;1816;50.976;6.936;2023-09-30T12:25:43;18.48;;;2.30;;
3603;SDS011;1816;50.976;6.936;2023-09-30T12:28:22;16.27;;;2.40;;
3603;SDS011;1816;50.976;6.936;2023-09-30T12:30:49;17.40;;;2.63;;
3603;SDS011;1816;50.976;6.936;2023-09-30T12:33:15;17.95;;;2.72;;
3603;SDS011;1816;50.976;6.936;2023-09-30T12:35:42;19.30;;;2.50;;
3603;SDS011;1816;50.976;6.936;2023-09-30T12:38:09;18.30;;;2.30;;
3603;SDS011;1816;50.976;6.936;2023-09-30T12:40:36;17.80;;;2.30;;
3603;SDS011;1816;50.976;6.936;2023-09-30T12:43:02;16.98;;;2.17;;
3603;SDS011;1816;50.976;6.936;2023-09-30T12:45:30;18.42;;;2.65;;
3603;SDS011;1816;50.976;6.936;2023-09-30T12:47:57;17.90;;;2.45;;
3603;SDS011;1816;50.976;6.936;2023-09-30T12:50:24;18.15;;;3.13;;
3603;SDS011;1816;50.976;6.936;2023-09-30T12:52:50;16.10;;;2.00;;
3603;SDS011;1816;50.976;6.936;2023-09-30T12:55:17;17.00;;;3.03;;
3603;SDS011;1816;50.976;6.936;2023-09-30T12:57:44;16.40;;;1.98;;
3603;SDS011;1816;50.976;6.936;2023-09-30T13:00:11;17.20;;;2.33;;
3603;SDS011;1816;50.976;6.936;2023-09-30T13:02:39;17.40;;;2.60;;
3603;SDS011;1816;50.976;6.936;2023-09-30T13:05:06;16.45;;;2.20;;
3603;SDS011;1816;50.976;6.936;2023-09-30T13:07:33;15.90;;;2.40;;
3603;SDS011;1816;50.976;6.936;2023-09-30T13:10:00;17.65;;;2.67;;
3603;SDS011;1816;50.976;6.936;2023-09-30T13:12:27;17.05;;;2.40;;
3603;SDS011;1816;50.976;6.936;2023-09-30T13:14:53;16.23;;;2.40;;
3603;SDS011;1816;50.976;6.936;2023-09-30T13:17:22;17.87;;;3.27;;
3603;SDS011;1816;50.976;6.936;2023-09-30T13:19:51;17.30;;;3.45;;
3603;SDS011;1816;50.976;6.936;2023-09-30T13:22:17;17.37;;;2.70;;
3603;SDS011;1816;50.976;6.936;2023-09-30T13:24:45;17.50;;;2.40;;
3603;SDS011;1816;50.976;6.936;2023-09-30T13:27:12;17.30;;;3.20;;
3603;SDS011;1816;50.976;6.936;2023-09-30T13:29:42;16.55;;;2.50;;
3603;SDS011;1816;50.976;6.936;2023-09-30T13:32:08;17.60;;;3.00;;
3603;SDS011;1816;50.976;6.936;2023-09-30T13:34:35;18.88;;;2.70;;
3603;SDS011;1816;50.976;6.936;2023-09-30T13:37:03;16.08;;;2.40;;
3603;SDS011;1816;50.976;6.936;2023-09-30T13:39:30;16.15;;;2.10;;
3603;SDS011;1816;50.976;6.936;2023-09-30T13:41:57;18.38;;;2.50;;
3603;SDS011;1816;50.976;6.936;2023-09-30T13:44:25;15.95;;;2.28;;
3603;SDS011;1816;50.976;6.936;2023-09-30T13:46:52;15.55;;;1.95;;
3603;SDS011;1816;50.976;6.936;2023-09-30T13:49:19;17.23;;;2.13;;
3603;SDS011;1816;50.976;6.936;2023-09-30T13:51:47;17.63;;;2.10;;
3603;SDS011;1816;50.976;6.936;2023-09-30T13:54:15;16.05;;;2.30;;
3603;SDS011;1816;50.976;6.936;2023-09-30T13:56:41;16.60;;;2.20;;
3603;SDS011;1816;50.976;6.936;2023-09-30T13:59:08;18.20;;;2.50;;
3603;SDS011;1816;50.976;6.936;2023-09-30T14:01:37;17.37;;;1.90;;
3603;SDS011;1816;50.976;6.936;2023-09-30T14:04:03;17.23;;;2.50;;
3603;SDS011;1816;50.976;6.936;2023-09-30T14:06:31;17.25;;;2.65;;
3603;SDS011;1816;50.976;6.936;2023-09-30T14:08:58;15.50;;;2.22;;
3603;SDS011;1816;50.976;6.936;2023-09-30T14:11:26;16.27;;;2.10;;
3603;SDS011;1816;50.976;6.936;2023-09-30T14:13:53;16.13;;;1.90;;
3603;SDS011;1816;50.976;6.936;2023-09-30T14:16:19;16.55;;;2.00;;
3603;SDS011;1816;50.976;6.936;2023-09-30T14:18:46;17.75;;;2.38;;
3603;SDS011;1816;50.976;6.936;2023-09-30T14:21:14;18.17;;;2.30;;
3603;SDS011;1816;50.976;6.936;2023-09-30T14:23:40;19.75;;;2.20;;
3603;SDS011;1816;50.976;6.936;2023-09-30T14:26:07;16.38;;;2.15;;
3603;SDS011;1816;50.976;6.936;2023-09-30T14:28:39;15.55;;;2.05;;
3603;SDS011;1816;50.976;6.936;2023-09-30T14:31:06;17.30;;;2.00;;
3603;SDS011;1816;50.976;6.936;2023-09-30T14:33:34;16.70;;;2.17;;
3603;SDS011;1816;50.976;6.936;2023-09-30T14:36:01;21.40;;;2.33;;
3603;SDS011;1816;50.976;6.936;2023-09-30T14:38:28;16.90;;;2.30;;
3603;SDS011;1816;50.976;6.936;2023-09-30T14:40:54;17.35;;;2.40;;
3603;SDS011;1816;50.976;6.936;2023-09-30T14:43:21;18.85;;;2.35;;
3603;SDS011;1816;50.976;6.936;2023-09-30T14:45:49;16.00;;;2.10;;
3603;SDS011;1816;50.976;6.936;2023-09-30T14:48:16;16.42;;;2.20;;
3603;SDS011;1816;50.976;6.936;2023-09-30T14:50:49;16.83;;;2.28;;
3603;SDS011;1816;50.976;6.936;2023-09-30T14:53:16;16.92;;;2.70;;
3603;SDS011;1816;50.976;6.936;2023-09-30T14:55:42;22.48;;;3.30;;
3603;SDS011;1816;50.976;6.936;2023-09-30T14:58:09;17.08;;;2.25;;
3603;SDS011;1816;50.976;6.936;2023-09-30T15:00:36;16.90;;;2.47;;
3603;SDS011;1816;50.976;6.936;2023-09-30T15:03:04;17.83;;;2.13;;
3603;SDS011;1816;50.976;6.936;2023-09-30T15:05:32;15.75;;;2.03;;
3603;SDS011;1816;50.976;6.936;2023-09-30T15:07:59;18.15;;;2.60;;
3603;SDS011;1816;50.976;6.936;2023-09-30T15:10:27;19.73;;;2.30;;
3603;SDS011;1816;50.976;6.936;2023-09-30T15:12:55;17.50;;;2.30;;
3603;SDS011;1816;50.976;6.936;2023-09-30T15:15:21;16.48;;;2.10;;